Time;durP1;ratioP1;P1;durP2;ratioP2;P2;SDS_P1;SDS_P2;PMS_P1;PMS_P2;Temp;Humidity;BMP_temperature;BMP_pressure;BME280_temperature;BME280_humidity;BME280_pressure;Samples;Min_cycle;Max_cycle;Signal;HPM_P1;HPM_P2
2022/08/07 00:01:21;;;;;;;6.73;1.67;;;-5.80;99.90;;;;;;4995902;28;20320;-67
2022/08/07 00:03:47;;;;;;;6.10;1.50;;;-6.10;99.90;;;;;;4996205;28;20251;-68
2022/08/07 00:06:12;;;;;;;3.27;1.70;;;-6.70;99.90;;;;;;4996574;28;20578;-70
2022/08/07 00:08:39;;;;;;;6.90;1.73;;;-7.80;99.90;;;;;;4996069;28;20170;-68
2022/08/07 00:11:05;;;;;;;4.97;2.33;;;-6.50;99.90;;;;;;4996459;28;20177;-68
2022/08/07 00:13:33;;;;;;;4.37;1.40;;;-7.30;99.90;;;;;;4996204;28;20179;-69
2022/08/07 00:15:59;;;;;;;2.80;2.17;;;-8.30;99.90;;;;;;4996317;28;20200;-68
2022/08/07 00:18:27;;;;;;;2.43;1.50;;;-7.00;99.90;;;;;;4996357;28;20252;-69
2022/08/07 00:21:02;;;;;;;4.10;1.67;;;-7.70;99.90;;;;;;4996382;28;20174;-69
2022/08/07 00:23:29;;;;;;;2.20;1.57;;;-4.70;99.90;;;;;;4995912;28;20209;-70
2022/08/07 00:25:55;;;;;;;1.80;1.23;;;-5.80;99.90;;;;;;4996429;28;20174;-67
2022/08/07 00:28:21;;;;;;;2.87;1.33;;;-6.00;99.90;;;;;;4996314;28;20597;-69
2022/08/07 00:30:47;;;;;;;3.20;1.60;;;-7.00;99.90;;;;;;4996223;28;20166;-71
2022/08/07 00:33:13;;;;;;;3.90;1.90;;;-7.80;99.90;;;;;;4996209;28;20180;-66
2022/08/07 00:35:39;;;;;;;3.30;1.80;;;-7.90;99.90;;;;;;4996324;28;20586;-69
2022/08/07 00:38:05;;;;;;;5.00;1.50;;;-8.20;99.90;;;;;;4995983;28;20228;-66
2022/08/07 00:40:31;;;;;;;4.30;1.93;;;-7.50;99.90;;;;;;4996213;28;20645;-67
2022/08/07 00:42:57;;;;;;;2.73;1.67;;;-7.60;99.90;;;;;;4996044;28;20205;-68
2022/08/07 00:45:23;;;;;;;5.67;2.13;;;-8.10;99.90;;;;;;4996678;28;20182;-69
2022/08/07 00:47:49;;;;;;;2.80;2.57;;;-6.80;99.90;;;;;;4996067;28;20643;-69
2022/08/07 00:50:15;;;;;;;3.23;2.13;;;-6.20;99.90;;;;;;4996202;28;20178;-68
2022/08/07 00:52:42;;;;;;;2.30;2.10;;;-4.30;99.90;;;;;;4995612;28;20170;-68
2022/08/07 00:55:08;;;;;;;2.10;1.90;;;-2.90;99.90;;;;;;5011328;28;20181;-68
2022/08/07 00:57:34;;;;;;;2.40;1.67;;;-2.00;99.90;;;;;;4996057;28;20174;-67
2022/08/07 01:00:01;;;;;;;6.03;2.40;;;-2.70;99.90;;;;;;4995901;28;20480;-68
2022/08/07 01:02:27;;;;;;;3.30;2.20;;;-4.00;99.90;;;;;;4995866;28;20212;-70
2022/08/07 01:04:52;;;;;;;2.30;2.10;;;7.50;99.90;;;;;;4996117;28;20174;-67
2022/08/07 01:07:20;;;;;;;2.07;1.80;;;8.90;99.90;;;;;;4995619;28;20174;-67
2022/08/07 01:09:47;;;;;;;4.03;2.23;;;8.30;99.90;;;;;;4996173;28;20472;-67
2022/08/07 01:12:15;;;;;;;3.50;2.00;;;8.60;99.90;;;;;;4995924;28;20170;-67
2022/08/07 01:14:41;;;;;;;6.67;2.33;;;9.80;99.90;;;;;;4999010;28;20181;-67
2022/08/07 01:17:08;;;;;;;2.10;1.90;;;9.30;99.90;;;;;;4999424;28;20251;-68
2022/08/07 01:19:35;;;;;;;3.63;2.07;;;9.20;99.90;;;;;;4999294;28;20201;-69
2022/08/07 01:22:02;;;;;;;2.13;1.90;;;9.80;99.90;;;;;;4999131;28;20249;-70
2022/08/07 01:24:29;;;;;;;5.10;2.30;;;9.30;99.90;;;;;;4999264;28;20233;-71
2022/08/07 01:26:55;;;;;;;2.13;1.93;;;9.00;99.90;;;;;;4999446;28;20181;-67
2022/08/07 01:29:25;;;;;;;5.53;2.43;;;9.40;99.90;;;;;;4999286;28;20643;-68
2022/08/07 01:31:51;;;;;;;2.07;1.87;;;9.50;99.90;;;;;;4999231;28;20197;-67
2022/08/07 01:34:17;;;;;;;5.13;2.17;;;9.50;99.90;;;;;;5014458;28;20209;-67
2022/08/07 01:36:45;;;;;;;2.37;2.17;;;9.20;99.90;;;;;;4998889;28;20178;-67
2022/08/07 01:39:11;;;;;;;5.70;2.03;;;9.30;99.90;;;;;;4999069;28;20178;-67
2022/08/07 01:41:38;;;;;;;1.80;1.70;;;8.40;99.90;;;;;;5014274;28;20236;-68
2022/08/07 01:44:04;;;;;;;3.80;2.47;;;9.10;99.90;;;;;;5013839;28;20210;-70
2022/08/07 01:46:30;;;;;;;3.23;2.10;;;8.90;99.90;;;;;;4999119;28;20253;-71
2022/08/07 01:48:56;;;;;;;5.93;2.47;;;8.80;99.90;;;;;;4999072;28;20170;-68
2022/08/07 01:51:24;;;;;;;3.50;3.00;;;9.10;99.90;;;;;;4998470;28;20634;-67
2022/08/07 01:53:56;;;;;;;2.53;2.33;;;9.30;99.90;;;;;;4998878;28;20257;-69
2022/08/07 01:56:25;;;;;;;2.60;2.40;;;9.80;99.90;;;;;;4998664;28;20244;-72
2022/08/07 01:59:06;;;;;;;2.80;2.63;;;9.10;99.90;;;;;;4998734;28;20174;-70
2022/08/07 02:01:38;;;;;;;2.90;2.70;;;9.90;99.90;;;;;;4998696;28;20181;-69
2022/08/07 02:04:25;;;;;;;2.90;2.17;;;9.50;99.90;;;;;;4998352;28;20202;-70
2022/08/07 02:06:55;;;;;;;2.43;2.10;;;10.20;99.90;;;;;;4998445;28;20178;-69
2022/08/07 02:09:22;;;;;;;3.07;2.27;;;10.30;99.90;;;;;;4998704;28;20177;-71
2022/08/07 02:11:50;;;;;;;2.57;2.30;;;10.10;99.90;;;;;;4998502;28;20170;-70
2022/08/07 02:14:18;;;;;;;3.10;1.53;;;9.70;99.90;;;;;;4998473;28;20209;-70
2022/08/07 02:16:47;;;;;;;2.37;2.27;;;10.00;99.90;;;;;;4998297;28;20221;-72
2022/08/07 02:19:15;;;;;;;3.63;2.47;;;9.90;99.90;;;;;;5013550;28;20197;-72
2022/08/07 02:21:42;;;;;;;3.87;2.63;;;9.40;99.90;;;;;;4998358;28;20210;-70
2022/08/07 02:24:08;;;;;;;2.73;2.53;;;9.70;99.90;;;;;;4997683;28;20229;-70
2022/08/07 02:26:36;;;;;;;2.70;2.40;;;9.40;99.90;;;;;;4997860;28;20173;-72
2022/08/07 02:29:06;;;;;;;2.30;1.97;;;8.90;99.90;;;;;;4998301;28;20166;-69
2022/08/07 02:31:33;;;;;;;2.43;2.23;;;9.20;99.90;;;;;;5013330;28;20170;-71
2022/08/07 02:34:03;;;;;;;5.87;3.17;;;8.70;99.90;;;;;;4997895;28;20162;-72
2022/08/07 02:36:30;;;;;;;7.07;2.23;;;8.10;99.90;;;;;;5013266;28;20178;-69
2022/08/07 02:38:57;;;;;;;2.90;2.70;;;8.30;99.90;;;;;;5013418;28;20185;-69
2022/08/07 02:41:25;;;;;;;3.20;2.90;;;8.40;99.90;;;;;;4997006;28;20183;-71
2022/08/07 02:43:52;;;;;;;3.17;2.87;;;8.70;99.90;;;;;;4997791;28;20190;-70
2022/08/07 02:46:19;;;;;;;4.10;3.33;;;8.70;99.90;;;;;;5013202;28;20178;-70
2022/08/07 02:48:45;;;;;;;3.27;2.97;;;8.20;99.90;;;;;;4997829;28;20254;-67
2022/08/07 02:51:15;;;;;;;3.57;2.80;;;8.70;99.90;;;;;;4997902;28;20198;-71
2022/08/07 02:53:44;;;;;;;3.03;2.83;;;8.60;99.90;;;;;;4997994;28;20177;-69
2022/08/07 02:56:17;;;;;;;4.80;2.97;;;8.20;99.90;;;;;;4997718;28;20182;-70
2022/08/07 02:58:48;;;;;;;4.50;2.83;;;8.00;99.90;;;;;;4998238;28;20166;-69
2022/08/07 03:01:18;;;;;;;7.93;2.13;;;8.90;99.90;;;;;;4998130;28;20166;-69
2022/08/07 03:03:48;;;;;;;5.30;1.90;;;7.20;99.90;;;;;;5013258;28;20264;-69
2022/08/07 03:06:18;;;;;;;3.83;2.40;;;8.30;99.90;;;;;;5013538;28;20570;-70
2022/08/07 03:08:44;;;;;;;4.27;2.97;;;8.70;99.90;;;;;;4998377;28;20158;-70
2022/08/07 03:11:10;;;;;;;2.93;2.63;;;8.40;99.90;;;;;;4997357;28;20194;-70
2022/08/07 03:13:36;;;;;;;2.67;2.50;;;9.20;99.90;;;;;;4997606;28;20170;-71
2022/08/07 03:16:03;;;;;;;2.53;2.33;;;8.60;99.90;;;;;;4997571;28;20268;-68
2022/08/07 03:18:30;;;;;;;2.30;2.10;;;8.50;99.90;;;;;;5012725;28;20194;-67
2022/08/07 03:20:59;;;;;;;10.70;2.37;;;8.90;99.90;;;;;;5012965;28;20272;-71
2022/08/07 03:23:35;;;;;;;4.57;2.20;;;8.30;99.90;;;;;;5012870;28;20516;-69
2022/08/07 03:26:05;;;;;;;3.10;2.17;;;8.60;99.90;;;;;;4997743;28;20162;-69
2022/08/07 03:28:34;;;;;;;2.27;2.07;;;7.90;99.90;;;;;;4998403;28;20158;-69
2022/08/07 03:31:19;;;;;;;2.70;2.57;;;8.10;99.90;;;;;;5013883;28;20227;-70
2022/08/07 03:33:54;;;;;;;3.07;2.77;;;8.20;99.90;;;;;;4999514;28;20200;-70
2022/08/07 03:36:23;;;;;;;2.50;2.03;;;8.20;99.90;;;;;;4999887;28;20177;-69
2022/08/07 03:38:51;;;;;;;5.63;2.83;;;7.50;99.90;;;;;;5014677;28;20293;-69
2022/08/07 03:41:17;;;;;;;6.87;3.20;;;6.50;99.90;;;;;;4997077;28;20166;-70
2022/08/07 03:43:43;;;;;;;3.13;2.83;;;6.40;99.90;;;;;;5011975;28;20660;-69
2022/08/07 03:46:10;;;;;;;3.23;3.03;;;7.10;99.90;;;;;;4995688;28;20170;-68
2022/08/07 03:48:37;;;;;;;3.30;2.90;;;6.90;99.90;;;;;;4996790;28;20163;-70
2022/08/07 03:51:04;;;;;;;3.20;3.00;;;6.30;99.90;;;;;;5012039;28;20217;-70
2022/08/07 03:53:30;;;;;;;2.93;2.73;;;6.50;99.90;;;;;;4996683;28;20178;-69
2022/08/07 03:55:58;;;;;;;4.43;3.00;;;7.00;99.90;;;;;;4996776;28;20170;-68
2022/08/07 03:58:24;;;;;;;4.13;3.73;;;6.50;99.90;;;;;;5011820;28;20572;-69
2022/08/07 04:00:53;;;;;;;3.43;2.93;;;5.60;99.90;;;;;;4996379;28;20490;-68
2022/08/07 04:03:19;;;;;;;4.37;3.60;;;5.40;99.90;;;;;;4996320;28;20248;-69
2022/08/07 04:05:45;;;;;;;4.63;3.03;;;5.00;99.90;;;;;;4996699;28;20177;-69
2022/08/07 04:08:13;;;;;;;3.53;3.33;;;3.80;99.90;;;;;;4996477;28;20174;-71
2022/08/07 04:10:40;;;;;;;5.60;4.00;;;4.40;99.90;;;;;;4996482;28;20172;-67
2022/08/07 04:13:09;;;;;;;3.03;2.83;;;4.50;99.90;;;;;;4995390;28;20170;-71
2022/08/07 04:15:38;;;;;;;3.20;3.00;;;8.20;99.90;;;;;;4996410;28;20174;-70
2022/08/07 04:18:04;;;;;;;3.73;3.30;;;8.00;99.90;;;;;;5011578;28;20581;-71
2022/08/07 04:20:30;;;;;;;4.50;3.40;;;8.10;99.90;;;;;;4996382;28;20252;-68
2022/08/07 04:22:58;;;;;;;3.70;3.40;;;8.00;99.90;;;;;;4996193;28;20236;-69
2022/08/07 04:25:25;;;;;;;4.50;3.57;;;8.50;99.90;;;;;;4996252;28;20174;-69
2022/08/07 04:27:51;;;;;;;5.53;3.50;;;8.10;99.90;;;;;;4996328;28;20192;-67
2022/08/07 04:30:17;;;;;;;3.83;3.40;;;7.90;99.90;;;;;;4996007;28;20170;-69
2022/08/07 04:32:44;;;;;;;3.73;3.07;;;8.00;99.90;;;;;;4996183;28;20192;-67
2022/08/07 04:35:10;;;;;;;3.27;3.00;;;7.70;99.90;;;;;;4996150;28;20174;-69
2022/08/07 04:37:36;;;;;;;5.03;4.63;;;8.20;99.90;;;;;;4996322;28;20177;-69
2022/08/07 04:40:03;;;;;;;3.67;3.40;;;8.40;99.90;;;;;;4996093;28;20178;-70
2022/08/07 04:42:30;;;;;;;3.37;3.17;;;7.90;99.90;;;;;;4996161;28;20225;-72
2022/08/07 04:44:59;;;;;;;4.43;3.90;;;7.30;99.90;;;;;;4995916;28;20220;-70
2022/08/07 04:47:40;;;;;;;4.23;3.93;;;7.20;99.90;;;;;;5011363;28;20265;-69
2022/08/07 04:50:22;;;;;;;3.80;3.50;;;8.00;99.90;;;;;;5000116;28;20176;-71
2022/08/07 04:53:11;;;;;;;3.83;3.57;;;9.50;99.90;;;;;;5015660;28;20190;-72
2022/08/07 04:56:12;;;;;;;4.77;3.93;;;9.60;99.90;;;;;;5000036;28;20258;-68
2022/08/07 04:59:00;;;;;;;4.37;3.97;;;9.70;99.90;;;;;;4996774;28;20272;-68
2022/08/07 05:01:48;;;;;;;4.63;4.23;;;9.60;99.90;;;;;;4999833;28;20166;-69
2022/08/07 05:04:43;;;;;;;3.83;3.63;;;9.80;99.90;;;;;;5014858;28;20288;-69
2022/08/07 05:07:22;;;;;;;6.00;4.57;;;9.90;99.90;;;;;;4998328;28;20178;-68
2022/08/07 05:10:01;;;;;;;6.40;4.67;;;10.10;99.90;;;;;;4999634;28;20178;-69
2022/08/07 05:12:38;;;;;;;4.47;4.07;;;10.10;99.90;;;;;;4999376;28;20447;-68
2022/08/07 05:15:17;;;;;;;5.43;4.93;;;10.00;99.90;;;;;;4999556;28;20173;-66
2022/08/07 05:17:50;;;;;;;5.90;5.27;;;10.10;99.90;;;;;;4999333;28;20205;-68
2022/08/07 05:20:22;;;;;;;5.07;4.67;;;10.30;99.90;;;;;;4999320;28;20261;-67
2022/08/07 05:22:51;;;;;;;6.10;4.67;;;10.30;99.90;;;;;;4999344;28;20204;-68
2022/08/07 05:25:20;;;;;;;9.43;5.30;;;10.20;99.90;;;;;;4999275;28;20274;-68
2022/08/07 05:27:47;;;;;;;4.73;4.23;;;10.30;99.90;;;;;;4999233;28;20178;-69
2022/08/07 05:30:16;;;;;;;5.87;5.37;;;10.40;99.90;;;;;;4998962;28;20170;-69
2022/08/07 05:32:46;;;;;;;5.90;4.87;;;10.50;99.90;;;;;;4999312;28;20313;-70
2022/08/07 05:35:14;;;;;;;8.77;5.03;;;10.60;99.90;;;;;;4999010;28;20169;-68
2022/08/07 05:37:41;;;;;;;11.80;5.20;;;10.60;99.90;;;;;;4999176;28;20185;-68
2022/08/07 05:40:09;;;;;;;8.30;6.43;;;10.70;99.90;;;;;;4999011;28;20162;-68
2022/08/07 05:42:36;;;;;;;8.10;6.13;;;10.70;99.90;;;;;;4998658;28;20204;-70
2022/08/07 05:45:04;;;;;;;6.43;5.70;;;10.80;99.90;;;;;;4999116;28;20178;-70
2022/08/07 05:47:32;;;;;;;5.13;4.67;;;10.90;99.90;;;;;;4998990;28;20257;-70
2022/08/07 05:49:59;;;;;;;8.53;5.90;;;10.90;99.90;;;;;;4998748;28;20535;-68
2022/08/07 05:52:25;;;;;;;6.63;5.93;;;10.90;99.90;;;;;;4998869;28;20561;-68
2022/08/07 05:54:51;;;;;;;7.87;5.10;;;11.10;99.90;;;;;;4998789;28;20169;-68
2022/08/07 05:57:18;;;;;;;6.17;5.77;;;11.10;99.90;;;;;;5013776;28;20174;-69
2022/08/07 05:59:46;;;;;;;5.47;4.97;;;11.20;99.90;;;;;;4998611;28;20197;-69
2022/08/07 06:02:15;;;;;;;5.83;5.40;;;11.30;99.90;;;;;;4998743;28;20217;-70
2022/08/07 06:04:48;;;;;;;8.07;5.73;;;11.40;99.90;;;;;;4998611;28;20207;-69
2022/08/07 06:07:14;;;;;;;7.57;5.07;;;11.50;99.90;;;;;;4998620;28;20162;-70
2022/08/07 06:09:40;;;;;;;5.87;5.37;;;11.50;99.90;;;;;;4998479;28;20174;-70
2022/08/07 06:12:06;;;;;;;6.53;4.70;;;11.80;99.90;;;;;;4998161;28;20175;-66
2022/08/07 06:14:32;;;;;;;4.80;4.40;;;12.00;99.90;;;;;;4998420;28;20677;-68
2022/08/07 06:16:59;;;;;;;4.20;3.90;;;12.20;99.90;;;;;;4998151;28;20269;-70
2022/08/07 06:19:27;;;;;;;5.00;4.50;;;12.20;99.90;;;;;;4998257;28;20198;-69
2022/08/07 06:21:54;;;;;;;5.40;4.77;;;12.20;99.90;;;;;;4998362;28;20171;-68
2022/08/07 06:24:21;;;;;;;4.57;4.27;;;12.20;99.90;;;;;;4998007;28;20232;-67
2022/08/07 06:26:47;;;;;;;4.77;4.37;;;12.30;99.90;;;;;;4997900;28;20178;-67
2022/08/07 06:29:12;;;;;;;4.47;3.87;;;12.20;99.90;;;;;;4998524;28;20181;-67
2022/08/07 06:31:38;;;;;;;4.70;4.23;;;12.30;99.90;;;;;;4998733;28;20261;-68
2022/08/07 06:34:04;;;;;;;3.87;3.57;;;12.40;99.90;;;;;;4999918;28;20232;-69
2022/08/07 06:36:30;;;;;;;3.80;3.50;;;12.50;99.90;;;;;;4998511;28;20178;-70
2022/08/07 06:38:55;;;;;;;15.40;5.73;;;12.60;99.90;;;;;;4998240;28;20180;-71
2022/08/07 06:41:34;;;;;;;5.47;4.07;;;12.60;99.90;;;;;;4997604;28;20174;-70
2022/08/07 06:44:02;;;;;;;3.60;3.30;;;12.80;99.90;;;;;;4997900;28;20568;-70
2022/08/07 06:46:28;;;;;;;4.33;3.20;;;12.70;99.90;;;;;;4997762;28;20213;-72
2022/08/07 06:48:54;;;;;;;4.10;3.70;;;12.50;99.90;;;;;;4997984;28;20578;-71
2022/08/07 06:51:23;;;;;;;7.23;3.20;;;12.70;99.90;;;;;;5012843;28;20212;-70
2022/08/07 06:53:50;;;;;;;2.87;2.43;;;12.00;99.90;;;;;;4997936;28;20181;-71
2022/08/07 06:56:38;;;;;;;3.03;2.83;;;11.80;99.90;;;;;;5012783;28;20209;-69
2022/08/07 06:59:03;;;;;;;2.77;2.57;;;11.50;99.90;;;;;;4997722;28;20181;-70
2022/08/07 07:01:32;;;;;;;5.10;2.83;;;11.80;99.90;;;;;;4997528;28;20178;-70
2022/08/07 07:03:58;;;;;;;4.17;3.63;;;11.80;99.90;;;;;;4997585;28;20201;-70
2022/08/07 07:06:23;;;;;;;3.40;3.10;;;11.60;99.90;;;;;;4997485;28;20174;-69
2022/08/07 07:08:49;;;;;;;6.23;2.90;;;11.70;99.90;;;;;;4997333;28;20473;-70
2022/08/07 07:11:15;;;;;;;4.90;3.33;;;11.70;99.90;;;;;;4996662;28;20174;-70
2022/08/07 07:13:45;;;;;;;5.37;3.70;;;11.80;99.90;;;;;;4997293;28;20185;-69
2022/08/07 07:16:22;;;;;;;8.33;2.70;;;11.90;99.90;;;;;;4997099;28;20602;-69
2022/08/07 07:18:56;;;;;;;2.80;2.60;;;11.80;99.90;;;;;;4997347;28;20201;-70
2022/08/07 07:21:28;;;;;;;4.00;3.70;;;12.00;99.90;;;;;;4997011;28;20185;-69
2022/08/07 07:23:55;;;;;;;3.07;2.87;;;11.60;99.90;;;;;;5012118;28;20584;-70
2022/08/07 07:26:22;;;;;;;3.87;3.47;;;10.60;99.90;;;;;;4997046;28;20482;-70
2022/08/07 07:29:00;;;;;;;3.50;3.30;;;5.20;99.90;;;;;;4997348;28;20224;-70
2022/08/07 07:31:31;;;;;;;4.37;3.43;;;9.10;99.90;;;;;;4997085;28;20174;-71
2022/08/07 07:34:02;;;;;;;4.77;3.80;;;10.40;99.90;;;;;;4997196;28;20264;-69
2022/08/07 07:36:30;;;;;;;4.27;3.97;;;10.40;99.90;;;;;;4996882;28;20178;-70
2022/08/07 07:38:58;;;;;;;3.40;3.20;;;10.40;99.90;;;;;;4996798;28;20528;-69
2022/08/07 07:41:25;;;;;;;3.17;2.83;;;10.30;99.90;;;;;;4997094;28;20170;-70
2022/08/07 07:43:52;;;;;;;3.10;2.90;;;10.20;99.90;;;;;;4996624;28;20491;-69
2022/08/07 07:46:21;;;;;;;3.10;2.87;;;9.90;99.90;;;;;;4997756;28;20313;-70
2022/08/07 07:48:49;;;;;;;5.20;3.90;;;10.00;99.90;;;;;;4997739;28;20216;-69
2022/08/07 07:51:17;;;;;;;4.90;3.17;;;9.20;99.90;;;;;;4997240;28;20580;-69
2022/08/07 07:53:45;;;;;;;4.03;3.57;;;9.70;99.90;;;;;;4996925;28;20265;-69
2022/08/07 07:56:12;;;;;;;3.13;2.93;;;10.00;99.90;;;;;;4997424;28;20257;-71
2022/08/07 07:58:39;;;;;;;4.73;2.70;;;10.70;99.90;;;;;;4998384;28;20220;-70
2022/08/07 08:01:10;;;;;;;4.40;4.10;;;10.60;99.90;;;;;;5004213;28;20174;-72
2022/08/07 08:03:38;;;;;;;4.30;3.00;;;10.00;99.90;;;;;;5018705;28;20327;-69
2022/08/07 08:06:06;;;;;;;4.77;4.03;;;8.50;99.90;;;;;;5003551;28;20205;-69
2022/08/07 08:08:34;;;;;;;3.43;3.03;;;18.10;99.90;;;;;;5019223;28;20189;-70
2022/08/07 08:11:01;;;;;;;5.63;2.93;;;18.10;99.90;;;;;;4997530;28;20169;-71
2022/08/07 08:13:29;;;;;;;3.70;2.70;;;18.10;99.90;;;;;;4996866;28;20193;-69
2022/08/07 08:15:57;;;;;;;3.43;3.20;;;18.10;99.90;;;;;;4996581;28;20201;-70
2022/08/07 08:18:26;;;;;;;2.70;2.50;;;18.20;99.90;;;;;;4996973;28;20198;-70
2022/08/07 08:20:52;;;;;;;3.73;3.43;;;18.30;99.90;;;;;;5011758;28;20477;-71
2022/08/07 08:28:53;;;;;;;3.03;2.83;;;18.40;99.90;;;;;;4996326;28;20232;-70
2022/08/07 08:31:32;;;;;;;3.17;2.73;;;18.40;99.90;;;;;;4997147;28;20542;-70
2022/08/07 08:34:01;;;;;;;2.80;2.60;;;18.30;99.90;;;;;;5000397;28;20177;-70
2022/08/07 08:36:32;;;;;;;3.63;3.00;;;17.60;99.90;;;;;;5000005;28;20170;-71
2022/08/07 08:39:00;;;;;;;3.97;3.03;;;18.80;99.90;;;;;;4998500;28;20185;-70
2022/08/07 08:41:48;;;;;;;3.47;3.10;;;18.90;99.90;;;;;;4996816;28;20205;-71
2022/08/07 08:44:26;;;;;;;2.83;2.53;;;18.90;99.90;;;;;;4996076;28;20213;-70
2022/08/07 08:47:23;;;;;;;4.37;2.90;;;19.00;99.90;;;;;;4996182;28;20170;-70
2022/08/07 08:50:19;;;;;;;4.43;3.30;;;19.00;99.90;;;;;;4995654;28;20189;-70
2022/08/07 08:53:02;;;;;;;4.50;2.73;;;18.90;99.90;;;;;;4996259;28;20460;-69
2022/08/07 08:55:31;;;;;;;2.97;2.60;;;18.70;99.90;;;;;;4996042;28;20208;-70
2022/08/07 08:58:01;;;;;;;4.53;2.23;;;18.50;99.90;;;;;;4996091;28;20248;-71
2022/08/07 09:00:34;;;;;;;2.50;1.63;;;17.90;99.90;;;;;;4995726;28;20170;-69
2022/08/07 09:03:08;;;;;;;5.23;2.17;;;-7.40;96.90;;;;;;4995967;28;20285;-68
2022/08/07 09:05:49;;;;;;;2.43;2.20;;;-8.10;95.70;;;;;;4995570;28;20176;-70
2022/08/07 09:08:42;;;;;;;3.63;2.03;;;-8.30;95.50;;;;;;4996212;28;20178;-70
2022/08/07 09:11:22;;;;;;;4.93;2.90;;;-7.00;95.50;;;;;;4995856;28;20601;-69
2022/08/07 09:14:19;;;;;;;2.60;2.40;;;-7.70;94.80;;;;;;4994648;28;20749;-69
2022/08/07 09:17:25;;;;;;;3.83;2.70;;;-7.50;95.10;;;;;;4996013;28;20503;-69
2022/08/07 09:20:08;;;;;;;4.00;2.00;;;-8.50;93.80;;;;;;4994559;28;20533;-69
2022/08/07 09:22:53;;;;;;;3.67;2.77;;;-10.70;94.00;;;;;;4995755;28;20174;-71
2022/08/07 09:25:26;;;;;;;3.10;2.67;;;-12.10;93.00;;;;;;4995572;28;20181;-69
2022/08/07 09:28:03;;;;;;;3.63;2.33;;;-10.30;92.30;;;;;;5011341;28;20177;-70
2022/08/07 09:30:43;;;;;;;3.20;2.47;;;-9.80;92.40;;;;;;4995613;28;20209;-72
2022/08/07 09:33:26;;;;;;;3.33;2.47;;;-8.60;93.20;;;;;;4995812;28;20173;-70
2022/08/07 09:36:22;;;;;;;3.43;3.10;;;-9.00;92.10;;;;;;4999088;28;20170;-70
2022/08/07 09:38:57;;;;;;;5.43;2.00;;;-8.10;93.20;;;;;;5014680;28;20178;-71
2022/08/07 09:41:37;;;;;;;2.30;2.10;;;-12.10;91.20;;;;;;4999035;28;20170;-71
2022/08/07 09:44:21;;;;;;;2.40;1.67;;;-10.70;90.70;;;;;;4998833;28;20213;-73
2022/08/07 09:47:02;;;;;;;4.07;1.60;;;-11.00;90.60;;;;;;4999200;28;20170;-73
2022/08/07 09:49:52;;;;;;;4.23;2.27;;;-9.80;90.70;;;;;;4998630;28;20166;-72
2022/08/07 09:52:29;;;;;;;2.17;1.97;;;-12.00;90.10;;;;;;4999034;28;20170;-74
2022/08/07 09:55:03;;;;;;;12.27;3.73;;;21.40;99.80;;;;;;4998984;28;20479;-72
2022/08/07 09:58:06;;;;;;;4.23;2.20;;;21.40;99.30;;;;;;4998778;28;20257;-71
2022/08/07 10:01:05;;;;;;;2.10;1.90;;;21.50;98.00;;;;;;4998580;28;20253;-73
2022/08/07 10:03:41;;;;;;;1.67;1.60;;;21.40;97.70;;;;;;4996967;28;20260;-72
2022/08/07 10:06:22;;;;;;;1.83;1.73;;;21.50;98.00;;;;;;4998594;28;20181;-72
2022/08/07 10:09:23;;;;;;;3.30;2.10;;;21.40;97.20;;;;;;5014214;28;20197;-70
2022/08/07 10:12:08;;;;;;;2.77;2.23;;;21.40;97.90;;;;;;4997885;28;20617;-72
2022/08/07 10:15:11;;;;;;;4.40;2.13;;;21.40;97.40;;;;;;4998230;28;20170;-72
2022/08/07 10:18:03;;;;;;;2.43;2.30;;;21.00;97.30;;;;;;4998011;28;20198;-70
2022/08/07 10:20:59;;;;;;;2.30;2.03;;;20.60;97.60;;;;;;5013413;28;20441;-72
2022/08/07 10:23:43;;;;;;;2.03;1.83;;;21.90;96.20;;;;;;4998250;28;20198;-72
2022/08/07 10:26:45;;;;;;;2.47;2.00;;;21.90;96.30;;;;;;4998137;28;20171;-71
2022/08/07 10:29:20;;;;;;;2.37;2.23;;;22.10;96.20;;;;;;4998191;28;20161;-72
2022/08/07 10:31:46;;;;;;;3.50;2.03;;;22.10;95.70;;;;;;4997810;28;20166;-70
2022/08/07 10:34:35;;;;;;;1.73;1.53;;;22.20;95.50;;;;;;4998239;28;20228;-70
2022/08/07 10:37:18;;;;;;;1.30;1.20;;;22.10;95.10;;;;;;4998048;28;20266;-70
2022/08/07 10:40:02;;;;;;;2.33;2.13;;;21.80;93.90;;;;;;5013161;28;20185;-73
2022/08/07 10:42:44;;;;;;;2.10;1.90;;;21.00;94.20;;;;;;4997588;28;20261;-71
2022/08/07 10:45:38;;;;;;;6.73;2.00;;;22.10;94.30;;;;;;4997488;28;20178;-70
2022/08/07 10:48:30;;;;;;;2.60;2.50;;;22.20;95.20;;;;;;4997584;28;20170;-70
2022/08/07 10:51:05;;;;;;;2.43;2.10;;;22.30;94.60;;;;;;4997701;28;20578;-70
2022/08/07 10:53:39;;;;;;;1.67;1.57;;;22.40;94.40;;;;;;4997625;28;20178;-70
2022/08/07 10:56:19;;;;;;;2.83;1.93;;;22.40;93.90;;;;;;4997532;28;20173;-69
2022/08/07 10:59:11;;;;;;;1.97;1.87;;;22.40;94.20;;;;;;4997503;28;20178;-71
2022/08/07 11:01:48;;;;;;;3.17;1.80;;;22.00;93.80;;;;;;5012424;28;20178;-71
2022/08/07 11:04:33;;;;;;;2.80;2.70;;;21.90;93.00;;;;;;4997391;28;20204;-69
2022/08/07 11:07:24;;;;;;;2.00;1.80;;;23.40;93.10;;;;;;4997480;28;20600;-69
2022/08/07 11:09:56;;;;;;;2.97;1.87;;;23.30;90.30;;;;;;4997214;28;20182;-73
2022/08/07 11:12:36;;;;;;;3.60;2.40;;;23.30;91.40;;;;;;4997298;28;20162;-72
2022/08/07 11:15:13;;;;;;;3.03;2.47;;;23.40;91.40;;;;;;4997220;28;20512;-69
2022/08/07 11:18:04;;;;;;;1.83;1.53;;;23.40;89.30;;;;;;5012433;28;20218;-72
2022/08/07 11:20:42;;;;;;;1.20;1.20;;;23.30;90.30;;;;;;4997469;28;20257;-71
2022/08/07 11:23:16;;;;;;;1.43;1.33;;;23.20;89.60;;;;;;4997037;28;20181;-71
2022/08/07 11:25:51;;;;;;;2.33;2.13;;;23.30;90.90;;;;;;4997080;28;20166;-70
2022/08/07 11:28:24;;;;;;;2.20;2.10;;;23.40;92.50;;;;;;4997340;28;20577;-69
2022/08/07 11:31:17;;;;;;;2.00;1.83;;;22.90;91.10;;;;;;4996852;28;20194;-70
2022/08/07 11:34:18;;;;;;;4.67;1.67;;;24.40;91.40;;;;;;4996171;28;20190;-70
2022/08/07 11:36:53;;;;;;;1.40;1.30;;;24.50;90.40;;;;;;4995625;28;20221;-71
2022/08/07 11:39:35;;;;;;;4.13;2.03;;;24.60;87.70;;;;;;5012370;28;20169;-68
2022/08/07 11:42:13;;;;;;;2.37;1.70;;;24.50;86.10;;;;;;4996773;28;20617;-70
2022/08/07 11:44:57;;;;;;;4.93;2.47;;;24.60;85.00;;;;;;4996311;28;20205;-69
2022/08/07 11:47:49;;;;;;;1.70;1.60;;;24.60;89.60;;;;;;4996627;28;20177;-70
2022/08/07 11:50:33;;;;;;;2.00;1.90;;;25.30;87.90;;;;;;4996643;28;20566;-71
2022/08/07 11:53:22;;;;;;;1.77;1.50;;;25.40;85.40;;;;;;4996863;28;20478;-69
2022/08/07 11:56:03;;;;;;;1.53;1.43;;;25.00;83.80;;;;;;4996687;28;20450;-71
2022/08/07 11:59:14;;;;;;;1.40;1.23;;;-39.00;44.90;;;;;;4996165;28;20170;-71
2022/08/07 12:02:01;;;;;;;1.70;1.37;;;26.90;81.30;;;;;;4996324;28;20193;-70
2022/08/07 12:04:33;;;;;;;1.13;1.03;;;26.90;76.90;;;;;;4996432;28;20194;-71
2022/08/07 12:07:08;;;;;;;1.40;1.30;;;26.30;71.00;;;;;;5011796;28;20177;-69
2022/08/07 12:09:45;;;;;;;1.37;1.27;;;25.50;72.50;;;;;;4996370;28;20248;-70
2022/08/07 12:12:22;;;;;;;3.47;1.87;;;-33.10;41.90;;;;;;4996479;28;20197;-70
2022/08/07 12:15:14;;;;;;;3.53;1.30;;;28.60;71.10;;;;;;4995913;28;20205;-72
2022/08/07 12:17:48;;;;;;;4.15;1.38;;;28.90;72.10;;;;;;4995620;28;20227;-72
2022/08/07 12:20:27;;;;;;;2.22;2.03;;;29.40;69.10;;;;;;4996905;28;20173;-71
2022/08/07 12:23:27;;;;;;;1.20;1.10;;;29.60;71.70;;;;;;4997165;28;20225;-71
2022/08/07 12:26:08;;;;;;;1.63;1.42;;;29.20;68.80;;;;;;4997029;28;20190;-70
2022/08/07 12:28:53;;;;;;;1.13;1.10;;;30.40;70.90;;;;;;5000557;28;20170;-70
2022/08/07 12:31:57;;;;;;;1.75;1.65;;;30.30;67.70;;;;;;5020340;28;20186;-70
2022/08/07 12:34:26;;;;;;;1.70;1.60;;;30.80;68.10;;;;;;5000590;28;20174;-71
2022/08/07 12:36:55;;;;;;;3.25;1.13;;;30.40;63.00;;;;;;5011817;28;20569;-71
2022/08/07 12:39:22;;;;;;;3.28;1.02;;;31.00;59.90;;;;;;4997409;28;20174;-71
2022/08/07 12:41:51;;;;;;;1.20;1.20;;;31.10;61.50;;;;;;4996957;28;20516;-71
2022/08/07 12:44:19;;;;;;;3.25;1.67;;;31.00;60.60;;;;;;4995841;28;20288;-73
2022/08/07 12:46:51;;;;;;;1.38;1.38;;;31.20;64.40;;;;;;4996099;28;20166;-70
2022/08/07 12:49:35;;;;;;;1.00;1.00;;;31.40;59.20;;;;;;5011302;28;20174;-71
2022/08/07 12:52:12;;;;;;;1.58;1.20;;;30.40;58.20;;;;;;4996195;28;20210;-69
2022/08/07 12:54:56;;;;;;;1.35;1.10;;;30.80;60.50;;;;;;4995922;28;20193;-70
2022/08/07 12:57:27;;;;;;;1.63;1.30;;;31.60;58.10;;;;;;4995754;28;20174;-71
2022/08/07 12:59:54;;;;;;;1.38;1.27;;;28.90;57.40;;;;;;4995839;28;20574;-70
2022/08/07 13:02:54;;;;;;;1.25;1.25;;;31.90;60.50;;;;;;4996154;28;20182;-70
2022/08/07 13:05:38;;;;;;;1.52;1.40;;;29.20;54.90;;;;;;4995971;28;20173;-71
2022/08/07 13:08:32;;;;;;;5.05;1.38;;;-5.10;35.50;;;;;;4995944;28;20170;-70
2022/08/07 13:11:46;;;;;;;1.40;1.38;;;-4.50;35.10;;;;;;4999333;28;20226;-68
2022/08/07 13:14:20;;;;;;;1.50;1.40;;;-0.80;40.30;;;;;;4999670;28;20177;-69
2022/08/07 13:17:02;;;;;;;1.38;1.27;;;-9.70;34.50;;;;;;4999543;28;20217;-70
2022/08/07 13:20:00;;;;;;;1.50;1.40;;;-1.30;36.60;;;;;;4999505;28;20268;-70
2022/08/07 13:22:34;;;;;;;1.80;1.70;;;-7.80;34.30;;;;;;4999358;28;20221;-70
2022/08/07 13:25:03;;;;;;;3.17;1.30;;;-4.30;36.50;;;;;;4999235;28;20261;-70
2022/08/07 13:27:37;;;;;;;1.60;1.50;;;-0.40;34.70;;;;;;4999200;28;20170;-68
2022/08/07 13:30:14;;;;;;;2.00;1.27;;;2.00;35.20;;;;;;4999242;28;20165;-69